createdAt,value
2022-12-09T00:00:37.022Z,999.57
2022-12-09T00:01:37.052Z,999.59
2022-12-09T00:02:37.327Z,999.56
2022-12-09T00:03:37.135Z,999.59
2022-12-09T00:04:37.100Z,999.47
2022-12-09T00:05:36.948Z,999.48
2022-12-09T00:06:36.884Z,999.52
2022-12-09T00:07:36.996Z,999.46
2022-12-09T00:08:37.038Z,999.49
2022-12-09T00:09:37.146Z,999.45
2022-12-09T00:10:36.879Z,999.48
2022-12-09T00:11:37.075Z,999.45
2022-12-09T00:12:36.955Z,999.44
2022-12-09T00:13:36.961Z,999.38
2022-12-09T00:14:36.892Z,999.39
2022-12-09T00:15:36.891Z,999.35
2022-12-09T00:16:36.868Z,999.38
2022-12-09T00:17:36.907Z,999.40
2022-12-09T00:18:36.758Z,999.37
2022-12-09T00:19:36.766Z,999.36
2022-12-09T00:20:36.876Z,999.26
2022-12-09T00:21:36.803Z,999.32
2022-12-09T00:22:36.945Z,999.31
2022-12-09T00:23:36.826Z,999.27
2022-12-09T00:24:36.874Z,999.26
2022-12-09T00:25:36.902Z,999.27
2022-12-09T00:26:36.715Z,999.23
2022-12-09T00:27:36.717Z,999.31
2022-12-09T00:28:36.632Z,999.27
2022-12-09T00:29:36.901Z,999.27
2022-12-09T00:30:36.627Z,999.25
2022-12-09T00:31:36.814Z,999.26
2022-12-09T00:32:36.653Z,999.27
2022-12-09T00:33:36.638Z,999.27
2022-12-09T00:34:36.792Z,999.26
2022-12-09T00:35:36.773Z,999.25
2022-12-09T00:36:36.804Z,999.23
2022-12-09T00:37:36.551Z,999.27
2022-12-09T00:38:36.789Z,999.24
2022-12-09T00:39:36.536Z,999.21
2022-12-09T00:40:36.537Z,999.27
2022-12-09T00:41:36.696Z,999.24
2022-12-09T00:42:36.709Z,999.25
2022-12-09T00:43:36.481Z,999.24
2022-12-09T00:44:36.493Z,999.23
2022-12-09T00:45:36.506Z,999.24
2022-12-09T00:46:36.541Z,999.22
2022-12-09T00:47:36.708Z,999.24
2022-12-09T00:48:36.420Z,999.27
2022-12-09T00:49:36.676Z,999.24
2022-12-09T00:50:36.411Z,999.24
2022-12-09T00:51:36.420Z,999.27
2022-12-09T00:52:36.413Z,999.24
2022-12-09T00:53:36.386Z,999.25
2022-12-09T00:54:36.655Z,999.26
2022-12-09T00:55:36.443Z,999.23
2022-12-09T00:56:36.336Z,999.21
2022-12-09T00:57:36.472Z,999.24
2022-12-09T00:58:36.358Z,999.24
2022-12-09T00:59:36.510Z,999.21
2022-12-09T01:00:36.346Z,999.21
2022-12-09T01:01:36.473Z,999.17
2022-12-09T01:02:36.388Z,999.19
2022-12-09T01:03:36.511Z,999.20
2022-12-09T01:04:36.497Z,999.20
2022-12-09T01:05:36.364Z,999.15
2022-12-09T01:06:36.240Z,999.16
2022-12-09T01:07:36.389Z,999.14
2022-12-09T01:08:38.911Z,999.14
2022-12-09T01:09:36.311Z,999.10
2022-12-09T01:10:36.376Z,999.12
2022-12-09T01:11:36.267Z,999.15
2022-12-09T01:12:36.165Z,999.14
2022-12-09T01:13:36.131Z,999.16
2022-12-09T01:14:36.155Z,999.16
2022-12-09T01:15:36.286Z,999.16
2022-12-09T01:16:36.408Z,999.19
2022-12-09T01:17:36.266Z,999.20
2022-12-09T01:18:36.094Z,999.18
2022-12-09T01:19:36.106Z,999.21
2022-12-09T01:20:36.295Z,999.19
2022-12-09T01:21:36.155Z,999.23
2022-12-09T01:22:36.049Z,999.22
2022-12-09T01:23:36.057Z,999.24
2022-12-09T01:24:36.144Z,999.27
2022-12-09T01:25:36.023Z,999.27
2022-12-09T01:26:36.317Z,999.28
2022-12-09T01:27:36.066Z,999.25
2022-12-09T01:28:35.999Z,999.24
2022-12-09T01:29:36.158Z,999.21
2022-12-09T01:30:36.028Z,999.21
2022-12-09T01:31:36.251Z,999.20
2022-12-09T01:32:36.066Z,999.21
2022-12-09T01:33:36.164Z,999.23
2022-12-09T01:34:35.946Z,999.15
2022-12-09T01:35:36.003Z,999.20
2022-12-09T01:36:36.228Z,999.21
2022-12-09T01:37:36.120Z,999.16
2022-12-09T01:38:35.920Z,999.22
2022-12-09T01:39:36.225Z,999.23
2022-12-09T01:40:35.837Z,999.18
2022-12-09T01:41:35.973Z,999.22
2022-12-09T01:42:36.111Z,999.18
2022-12-09T01:43:35.894Z,999.19
2022-12-09T01:44:35.873Z,999.17
2022-12-09T01:45:35.855Z,999.15
2022-12-09T01:46:35.912Z,999.18
2022-12-09T01:47:35.893Z,999.12
2022-12-09T01:48:35.789Z,999.16
2022-12-09T01:49:35.773Z,999.19
2022-12-09T01:50:36.095Z,999.16
2022-12-09T01:51:36.033Z,999.13
2022-12-09T01:52:35.816Z,999.14
2022-12-09T01:53:36.035Z,999.12
2022-12-09T01:54:35.887Z,999.11
2022-12-09T01:55:35.705Z,999.14
2022-12-09T01:56:35.966Z,999.12
2022-12-09T01:57:35.827Z,999.10
2022-12-09T01:58:35.654Z,999.07
2022-12-09T01:59:35.778Z,999.08
2022-12-09T02:00:35.888Z,999.04
2022-12-09T02:01:35.824Z,999.06
2022-12-09T02:02:35.886Z,999.07
2022-12-09T02:03:36.178Z,999.04
2022-12-09T02:04:35.829Z,999.05
2022-12-09T02:05:35.682Z,999.05
2022-12-09T02:06:35.880Z,999.01
2022-12-09T02:07:35.648Z,999.04
2022-12-09T02:08:35.718Z,998.99
2022-12-09T02:09:35.640Z,999.02
2022-12-09T02:10:35.544Z,998.97
2022-12-09T02:11:35.813Z,998.98
2022-12-09T02:12:35.799Z,998.98
2022-12-09T02:13:35.582Z,999.01
2022-12-09T02:14:35.491Z,998.98
2022-12-09T02:15:35.669Z,999.00
2022-12-09T02:16:35.655Z,998.98
2022-12-09T02:17:35.561Z,998.92
2022-12-09T02:18:35.442Z,998.94
2022-12-09T02:19:35.553Z,998.89
2022-12-09T02:20:35.671Z,998.92
2022-12-09T02:21:35.419Z,998.97
2022-12-09T02:22:35.370Z,998.90
2022-12-09T02:23:35.672Z,998.94
2022-12-09T02:24:35.442Z,998.94
2022-12-09T02:25:35.365Z,998.94
2022-12-09T02:26:35.353Z,998.91
2022-12-09T02:27:35.341Z,998.92
2022-12-09T02:28:35.761Z,998.90
2022-12-09T02:29:35.348Z,998.90
2022-12-09T02:30:35.657Z,998.89
2022-12-09T02:31:35.789Z,998.87
2022-12-09T02:32:35.502Z,998.85
2022-12-09T02:33:35.382Z,998.91
2022-12-09T02:34:35.694Z,998.88
2022-12-09T02:35:35.365Z,998.87
2022-12-09T02:36:35.235Z,998.88
2022-12-09T02:37:35.490Z,998.89
2022-12-09T02:38:35.229Z,998.84
2022-12-09T02:39:35.411Z,998.85
2022-12-09T02:40:35.360Z,998.87
2022-12-09T02:41:35.215Z,998.84
2022-12-09T02:42:35.150Z,998.89
2022-12-09T02:43:35.485Z,998.88
2022-12-09T02:44:35.228Z,998.90
2022-12-09T02:45:35.244Z,998.89
2022-12-09T02:46:35.423Z,998.87
2022-12-09T02:47:35.200Z,998.88
2022-12-09T02:48:35.476Z,998.86
2022-12-09T02:49:35.083Z,998.85
2022-12-09T02:50:35.451Z,998.83
2022-12-09T02:51:35.337Z,998.81
2022-12-09T02:52:35.048Z,998.79
2022-12-09T02:53:35.052Z,998.78
2022-12-09T02:54:35.033Z,998.80
2022-12-09T02:55:35.010Z,998.73
2022-12-09T02:56:35.109Z,998.73
2022-12-09T02:57:35.085Z,998.73
2022-12-09T02:58:35.216Z,998.70
2022-12-09T02:59:35.059Z,998.70
2022-12-09T03:00:35.111Z,998.68
2022-12-09T03:01:35.000Z,998.66
2022-12-09T03:02:35.417Z,998.68
2022-12-09T03:03:35.206Z,998.66
2022-12-09T03:04:35.015Z,998.66
2022-12-09T03:05:34.941Z,998.68
2022-12-09T03:06:34.916Z,998.66
2022-12-09T03:07:34.889Z,998.68
2022-12-09T03:08:34.992Z,998.69
2022-12-09T03:09:35.021Z,998.69
2022-12-09T03:10:34.835Z,998.74
2022-12-09T03:11:34.937Z,998.71
2022-12-09T03:12:34.939Z,998.69
2022-12-09T03:13:35.148Z,998.69
2022-12-09T03:14:34.811Z,998.69
2022-12-09T03:15:34.823Z,998.68
2022-12-09T03:16:34.963Z,998.69
2022-12-09T03:17:35.034Z,998.63
2022-12-09T03:18:34.750Z,998.69
2022-12-09T03:19:35.033Z,998.65
2022-12-09T03:20:34.972Z,998.61
2022-12-09T03:21:34.705Z,998.58
2022-12-09T03:22:34.943Z,998.60
2022-12-09T03:23:34.983Z,998.55
2022-12-09T03:24:34.770Z,998.53
2022-12-09T03:25:35.011Z,998.59
2022-12-09T03:26:34.667Z,998.53
2022-12-09T03:27:34.652Z,998.51
2022-12-09T03:28:34.655Z,998.51
2022-12-09T03:29:34.634Z,998.50
2022-12-09T03:30:34.960Z,998.50
2022-12-09T03:31:34.742Z,998.57
2022-12-09T03:32:34.782Z,998.56
2022-12-09T03:33:34.670Z,998.53
2022-12-09T03:34:34.936Z,998.47
2022-12-09T03:35:34.973Z,998.52
2022-12-09T03:36:34.666Z,998.47
2022-12-09T03:37:34.532Z,998.46
2022-12-09T03:38:34.551Z,998.49
2022-12-09T03:39:34.536Z,998.46
2022-12-09T03:40:34.539Z,998.48
2022-12-09T03:41:34.773Z,998.46
2022-12-09T03:42:34.520Z,998.46
2022-12-09T03:43:34.475Z,998.44
2022-12-09T03:44:34.468Z,998.46
2022-12-09T03:45:34.700Z,998.44
2022-12-09T03:46:34.611Z,998.45
2022-12-09T03:47:34.902Z,998.47
2022-12-09T03:48:34.585Z,998.42
2022-12-09T03:49:34.478Z,998.44
2022-12-09T03:50:34.426Z,998.41
2022-12-09T03:51:34.597Z,998.46
2022-12-09T03:52:34.838Z,998.45
2022-12-09T03:53:34.375Z,998.40
2022-12-09T03:54:34.713Z,998.44
2022-12-09T03:55:34.573Z,998.35
2022-12-09T03:56:34.336Z,998.35
2022-12-09T03:57:34.313Z,998.41
2022-12-09T03:58:34.633Z,998.39
2022-12-09T03:59:34.307Z,998.38
2022-12-09T04:00:34.288Z,998.45
2022-12-09T04:01:34.569Z,998.41
2022-12-09T04:02:34.489Z,998.41
2022-12-09T04:03:34.714Z,998.41
2022-12-09T04:04:34.299Z,998.40
2022-12-09T04:05:34.430Z,998.39
2022-12-09T04:06:34.503Z,998.42
2022-12-09T04:07:34.236Z,998.36
2022-12-09T04:08:34.571Z,998.36
2022-12-09T04:09:34.344Z,998.33
2022-12-09T04:10:34.560Z,998.29
2022-12-09T04:11:34.361Z,998.35
2022-12-09T04:12:34.505Z,998.32
2022-12-09T04:13:34.404Z,998.38
2022-12-09T04:14:34.486Z,998.38
2022-12-09T04:15:34.132Z,998.39
2022-12-09T04:16:34.342Z,998.40
2022-12-09T04:17:34.190Z,998.31
2022-12-09T04:18:34.508Z,998.37
2022-12-09T04:19:34.093Z,998.33
2022-12-09T04:20:34.087Z,998.32
2022-12-09T04:21:34.232Z,998.32
2022-12-09T04:22:34.231Z,998.30
2022-12-09T04:23:39.269Z,998.33
2022-12-09T04:24:35.020Z,998.31
2022-12-09T04:25:34.108Z,998.32
2022-12-09T04:26:34.270Z,998.31
2022-12-09T04:27:34.016Z,998.25
2022-12-09T04:28:33.989Z,998.28
2022-12-09T04:29:34.253Z,998.30
2022-12-09T04:30:34.097Z,998.26
2022-12-09T04:31:34.276Z,998.26
2022-12-09T04:32:34.012Z,998.23
2022-12-09T04:33:33.964Z,998.24
2022-12-09T04:34:34.005Z,998.29
2022-12-09T04:35:34.196Z,998.27
2022-12-09T04:36:34.127Z,998.24
2022-12-09T04:37:34.304Z,998.26
2022-12-09T04:38:33.897Z,998.21
2022-12-09T04:39:33.888Z,998.22
2022-12-09T04:40:34.193Z,998.20
2022-12-09T04:41:33.842Z,998.18
2022-12-09T04:42:34.007Z,998.22
2022-12-09T04:43:33.816Z,998.23
2022-12-09T04:44:34.075Z,998.21
2022-12-09T04:45:33.873Z,998.17
2022-12-09T04:46:34.153Z,998.22
2022-12-09T04:47:33.852Z,998.19
2022-12-09T04:48:33.778Z,998.26
2022-12-09T04:49:33.731Z,998.21
2022-12-09T04:50:33.777Z,998.22
2022-12-09T04:51:39.375Z,998.17
2022-12-09T04:52:34.721Z,998.17
2022-12-09T04:53:33.680Z,998.14
2022-12-09T04:54:33.987Z,998.14
2022-12-09T04:55:33.678Z,998.16
2022-12-09T04:56:33.932Z,998.14
2022-12-09T04:57:34.031Z,998.15
2022-12-09T04:58:33.744Z,998.15
2022-12-09T04:59:33.719Z,998.15
2022-12-09T05:00:33.874Z,998.12
2022-12-09T05:01:33.947Z,998.13
2022-12-09T05:02:34.066Z,998.16
2022-12-09T05:03:33.853Z,998.12
2022-12-09T05:04:33.895Z,998.12
2022-12-09T05:05:33.708Z,998.12
2022-12-09T05:06:33.738Z,998.12
2022-12-09T05:07:33.704Z,998.16
2022-12-09T05:08:33.819Z,998.12
2022-12-09T05:09:33.737Z,998.13
2022-12-09T05:10:33.934Z,998.08
2022-12-09T05:11:33.814Z,998.07
2022-12-09T05:12:33.511Z,998.09
2022-12-09T05:13:33.738Z,998.10
2022-12-09T05:14:33.486Z,998.09
2022-12-09T05:15:33.661Z,998.07
2022-12-09T05:16:33.796Z,998.08
2022-12-09T05:17:33.725Z,998.07
2022-12-09T05:18:33.592Z,998.09
2022-12-09T05:19:33.438Z,998.07
2022-12-09T05:20:33.388Z,998.07
2022-12-09T05:21:33.568Z,998.04
2022-12-09T05:22:33.620Z,998.07
2022-12-09T05:23:33.459Z,998.08
2022-12-09T05:24:33.465Z,998.10
2022-12-09T05:25:33.500Z,998.09
2022-12-09T05:26:33.416Z,998.09
2022-12-09T05:27:33.412Z,998.04
2022-12-09T05:28:33.491Z,998.00
2022-12-09T05:29:33.583Z,998.06
2022-12-09T05:30:33.598Z,998.06
2022-12-09T05:31:33.511Z,998.04
2022-12-09T05:32:33.598Z,998.06
2022-12-09T05:33:33.562Z,998.04
2022-12-09T05:34:33.674Z,998.04
2022-12-09T05:35:37.645Z,997.99
2022-12-09T05:36:34.283Z,997.99
2022-12-09T05:37:33.406Z,998.02
2022-12-09T05:38:33.404Z,997.96
2022-12-09T05:39:33.289Z,998.02
2022-12-09T05:40:33.594Z,998.01
2022-12-09T05:41:33.303Z,998.01
2022-12-09T05:42:39.468Z,997.96
2022-12-09T05:43:34.535Z,997.97
2022-12-09T05:44:33.399Z,997.95
2022-12-09T05:45:33.431Z,997.90
2022-12-09T05:46:33.714Z,997.94
2022-12-09T05:47:33.346Z,997.93
2022-12-09T05:48:33.560Z,997.92
2022-12-09T05:49:33.327Z,997.89
2022-12-09T05:50:33.083Z,997.90
2022-12-09T05:51:33.063Z,997.89
2022-12-09T05:52:33.491Z,997.87
2022-12-09T05:53:33.416Z,997.92
2022-12-09T05:54:33.204Z,997.89
2022-12-09T05:55:33.346Z,997.85
2022-12-09T05:56:33.507Z,997.88
2022-12-09T05:57:33.096Z,997.89
2022-12-09T05:58:33.152Z,997.87
2022-12-09T05:59:33.339Z,997.89
2022-12-09T06:00:33.029Z,997.88
2022-12-09T06:01:33.101Z,997.91
2022-12-09T06:02:33.106Z,997.91
2022-12-09T06:03:33.155Z,997.88
2022-12-09T06:04:33.314Z,997.85
2022-12-09T06:05:33.467Z,997.84
2022-12-09T06:06:33.317Z,997.89
2022-12-09T06:07:33.261Z,997.84
2022-12-09T06:08:33.294Z,997.87
2022-12-09T06:09:33.093Z,997.85
2022-12-09T06:10:33.440Z,997.89
2022-12-09T06:11:33.424Z,997.87
2022-12-09T06:12:32.884Z,997.88
2022-12-09T06:13:32.862Z,997.87
2022-12-09T06:14:33.115Z,997.85
2022-12-09T06:15:33.726Z,997.83
2022-12-09T06:16:32.958Z,997.80
2022-12-09T06:17:32.886Z,997.82
2022-12-09T06:18:32.931Z,997.81
2022-12-09T06:19:32.923Z,997.86
2022-12-09T06:20:33.048Z,997.84
2022-12-09T06:21:32.996Z,997.81
2022-12-09T06:22:32.776Z,997.85
2022-12-09T06:23:32.770Z,997.84
2022-12-09T06:24:33.019Z,997.84
2022-12-09T06:25:32.761Z,997.83
2022-12-09T06:26:33.153Z,997.83
2022-12-09T06:27:32.691Z,997.82
2022-12-09T06:28:32.739Z,997.89
2022-12-09T06:29:32.723Z,997.88
2022-12-09T06:30:32.625Z,997.85
2022-12-09T06:31:32.722Z,997.89
2022-12-09T06:32:32.955Z,997.92
2022-12-09T06:34:01.195Z,997.91
2022-12-09T06:34:33.812Z,997.94
2022-12-09T06:35:33.022Z,997.93
2022-12-09T06:36:32.765Z,997.90
2022-12-09T06:37:32.697Z,997.94
2022-12-09T06:38:32.946Z,997.91
2022-12-09T06:39:32.600Z,997.91
2022-12-09T06:40:32.933Z,997.92
2022-12-09T06:41:33.500Z,997.93
2022-12-09T06:42:32.594Z,997.91
2022-12-09T06:43:32.859Z,997.93
2022-12-09T06:44:32.566Z,997.92
2022-12-09T06:45:32.654Z,997.95
2022-12-09T06:46:32.829Z,997.94
2022-12-09T06:47:32.790Z,997.97
2022-12-09T06:48:32.665Z,997.93
2022-12-09T06:49:32.973Z,997.94
2022-12-09T06:50:32.801Z,997.90
2022-12-09T06:51:32.629Z,997.91
2022-12-09T06:52:32.923Z,997.92
2022-12-09T06:53:32.476Z,997.96
2022-12-09T06:54:32.805Z,997.99
2022-12-09T06:55:32.468Z,998.03
2022-12-09T06:56:32.635Z,997.98
2022-12-09T06:57:32.394Z,997.99
2022-12-09T06:58:33.338Z,997.98
2022-12-09T06:59:35.235Z,997.97
2022-12-09T07:00:32.744Z,997.98
2022-12-09T07:01:34.373Z,998.01
2022-12-09T07:02:35.762Z,997.99
2022-12-09T07:03:32.807Z,998.00
2022-12-09T07:04:32.491Z,998.04
2022-12-09T07:05:32.539Z,997.99
2022-12-09T07:06:32.824Z,998.00
2022-12-09T07:07:32.430Z,997.99
2022-12-09T07:08:32.347Z,997.94
2022-12-09T07:09:32.629Z,997.98
2022-12-09T07:10:32.660Z,997.97
2022-12-09T07:11:32.673Z,997.95
2022-12-09T07:12:32.211Z,997.95
2022-12-09T07:13:32.576Z,997.95
2022-12-09T07:14:32.615Z,997.92
2022-12-09T07:15:32.255Z,997.91
2022-12-09T07:16:32.743Z,997.92
2022-12-09T07:17:32.608Z,997.93
2022-12-09T07:18:32.207Z,997.95
2022-12-09T07:19:32.316Z,997.97
2022-12-09T07:20:32.185Z,997.96
2022-12-09T07:21:32.091Z,997.99
2022-12-09T07:22:32.450Z,997.99
2022-12-09T07:23:32.018Z,998.00
2022-12-09T07:24:32.197Z,997.96
2022-12-09T07:25:32.032Z,997.99
2022-12-09T07:26:32.023Z,998.03
2022-12-09T07:27:32.153Z,997.98
2022-12-09T07:28:32.202Z,998.06
2022-12-09T07:29:32.440Z,998.06
2022-12-09T07:30:32.144Z,998.09
2022-12-09T07:31:32.069Z,998.02
2022-12-09T07:32:32.328Z,998.06
2022-12-09T07:33:32.090Z,998.06
2022-12-09T07:34:32.434Z,998.05
2022-12-09T07:35:32.354Z,998.07
2022-12-09T07:36:32.214Z,998.08
2022-12-09T07:37:32.332Z,998.06
2022-12-09T07:38:32.235Z,998.13
2022-12-09T07:39:32.323Z,998.14
2022-12-09T07:40:32.129Z,998.15
2022-12-09T07:41:32.384Z,998.14
2022-12-09T07:42:31.895Z,998.09
2022-12-09T07:43:31.793Z,998.17
2022-12-09T07:44:31.875Z,998.12
2022-12-09T07:45:32.109Z,998.13
2022-12-09T07:46:32.318Z,998.14
2022-12-09T07:47:31.971Z,998.09
2022-12-09T07:48:32.098Z,998.10
2022-12-09T07:49:31.876Z,998.11
2022-12-09T07:50:31.971Z,998.08
2022-12-09T07:51:32.024Z,998.08
2022-12-09T07:52:31.900Z,998.06
2022-12-09T07:53:32.119Z,998.11
2022-12-09T07:54:31.963Z,998.11
2022-12-09T07:55:31.890Z,998.11
2022-12-09T07:56:31.652Z,998.11
2022-12-09T07:57:31.764Z,998.10
2022-12-09T07:58:31.643Z,998.08
2022-12-09T07:59:31.817Z,998.07
2022-12-09T08:00:31.674Z,998.04
2022-12-09T08:01:31.738Z,998.08
2022-12-09T08:02:31.916Z,998.08
2022-12-09T08:03:31.967Z,998.10
2022-12-09T08:04:31.793Z,998.11
2022-12-09T08:05:31.850Z,998.10
2022-12-09T08:06:32.059Z,998.14
2022-12-09T08:07:32.055Z,998.14
2022-12-09T08:08:32.066Z,998.06
2022-12-09T08:09:32.116Z,998.09
2022-12-09T08:10:31.700Z,998.10
2022-12-09T08:11:31.879Z,998.08
2022-12-09T08:12:31.973Z,998.02
2022-12-09T08:13:31.710Z,998.06
2022-12-09T08:14:31.581Z,998.04
2022-12-09T08:15:31.626Z,998.05
2022-12-09T08:16:31.948Z,998.08
2022-12-09T08:17:31.833Z,998.11
2022-12-09T08:18:31.878Z,998.09
2022-12-09T08:19:31.605Z,998.12
2022-12-09T08:20:31.789Z,998.15
2022-12-09T08:21:31.860Z,998.11
2022-12-09T08:22:31.808Z,998.11
2022-12-09T08:23:31.581Z,998.10
2022-12-09T08:24:31.415Z,998.09
2022-12-09T08:25:32.308Z,998.09
2022-12-09T08:26:31.652Z,998.05
2022-12-09T08:27:31.752Z,998.07
2022-12-09T08:28:32.337Z,998.08
2022-12-09T08:29:31.383Z,998.12
2022-12-09T08:30:31.611Z,998.11
2022-12-09T08:31:35.621Z,998.09
2022-12-09T08:32:32.703Z,998.11
2022-12-09T08:33:31.363Z,998.12
2022-12-09T08:34:31.739Z,998.15
2022-12-09T08:35:31.321Z,998.15
2022-12-09T08:36:31.294Z,998.16
2022-12-09T08:37:31.591Z,998.18
2022-12-09T08:38:31.374Z,998.20
2022-12-09T08:39:31.395Z,998.17
2022-12-09T08:40:31.694Z,998.15
2022-12-09T08:41:31.196Z,998.16
2022-12-09T08:42:31.207Z,998.15
2022-12-09T08:43:31.334Z,998.16
2022-12-09T08:44:31.231Z,998.20
2022-12-09T08:45:31.482Z,998.15
2022-12-09T08:46:31.638Z,998.12
2022-12-09T08:47:31.247Z,998.14
2022-12-09T08:48:31.372Z,998.13
2022-12-09T08:49:31.498Z,998.11
2022-12-09T08:50:31.160Z,998.17
2022-12-09T08:51:31.179Z,998.20
2022-12-09T08:52:34.585Z,998.17
2022-12-09T08:53:32.274Z,998.14
2022-12-09T08:54:31.426Z,998.15
2022-12-09T08:55:31.236Z,998.12
2022-12-09T08:56:31.371Z,998.14
2022-12-09T08:57:31.377Z,998.10
2022-12-09T08:58:31.435Z,998.07
2022-12-09T08:59:31.069Z,998.07
2022-12-09T09:00:31.131Z,998.09
2022-12-09T09:01:32.311Z,998.07
2022-12-09T09:02:31.101Z,998.10
2022-12-09T09:03:31.402Z,998.09
2022-12-09T09:04:31.617Z,998.10
2022-12-09T09:05:31.229Z,998.10
2022-12-09T09:06:31.233Z,998.12
2022-12-09T09:07:31.161Z,998.10
2022-12-09T09:08:30.932Z,998.11
2022-12-09T09:09:30.913Z,998.13
2022-12-09T09:10:31.132Z,998.13
2022-12-09T09:11:31.060Z,998.13
2022-12-09T09:12:31.161Z,998.12
2022-12-09T09:13:30.833Z,998.12
2022-12-09T09:14:31.275Z,998.13
2022-12-09T09:15:31.219Z,998.12
2022-12-09T09:16:31.342Z,998.10
2022-12-09T09:17:31.032Z,998.10
2022-12-09T09:18:30.987Z,998.10
2022-12-09T09:19:31.151Z,998.07
2022-12-09T09:20:30.937Z,998.06
2022-12-09T09:21:31.259Z,997.99
2022-12-09T09:22:30.707Z,998.12
2022-12-09T09:23:31.385Z,998.02
2022-12-09T09:24:30.822Z,998.07
2022-12-09T09:25:30.738Z,998.07
2022-12-09T09:26:31.094Z,998.10
2022-12-09T09:27:31.049Z,998.08
2022-12-09T09:28:31.832Z,998.12
2022-12-09T09:29:30.729Z,998.06
2022-12-09T09:30:30.727Z,998.13
2022-12-09T09:31:31.078Z,998.11
2022-12-09T09:32:30.656Z,998.14
2022-12-09T09:33:30.817Z,998.19
2022-12-09T09:34:30.733Z,998.15
2022-12-09T09:35:31.080Z,998.18
2022-12-09T09:36:30.926Z,998.17
2022-12-09T09:37:30.537Z,998.14
2022-12-09T09:38:30.737Z,998.17
2022-12-09T09:39:30.713Z,998.18
2022-12-09T09:40:30.530Z,998.16
2022-12-09T09:41:30.726Z,998.15
2022-12-09T09:42:30.900Z,998.18
2022-12-09T09:43:30.675Z,998.14
2022-12-09T09:44:30.627Z,998.17
2022-12-09T09:45:30.792Z,998.13
2022-12-09T09:46:30.975Z,998.15
2022-12-09T09:47:34.740Z,998.16
2022-12-09T09:48:31.890Z,998.14
2022-12-09T09:49:30.961Z,998.10
2022-12-09T09:50:30.927Z,998.07
2022-12-09T09:51:30.513Z,998.12
2022-12-09T09:52:30.550Z,998.07
2022-12-09T09:53:30.732Z,998.05
2022-12-09T09:54:30.517Z,998.10
2022-12-09T09:55:30.470Z,998.09
2022-12-09T09:56:30.677Z,998.05
2022-12-09T09:57:30.721Z,998.08
2022-12-09T09:58:30.408Z,998.07
2022-12-09T09:59:30.929Z,998.04
2022-12-09T10:00:30.883Z,998.02
2022-12-09T10:01:30.667Z,998.05
2022-12-09T10:02:30.987Z,998.03
2022-12-09T10:03:30.634Z,998.00
2022-12-09T10:04:30.701Z,998.03
2022-12-09T10:05:30.704Z,998.02
2022-12-09T10:06:30.569Z,998.01
2022-12-09T10:07:30.463Z,997.99
2022-12-09T10:08:30.463Z,997.98
2022-12-09T10:09:30.424Z,997.97
2022-12-09T10:10:30.547Z,997.96
2022-12-09T10:11:30.731Z,997.96
2022-12-09T10:12:30.600Z,997.90
2022-12-09T10:13:30.841Z,997.90
2022-12-09T10:14:30.433Z,997.86
2022-12-09T10:15:30.455Z,997.89
2022-12-09T10:16:30.729Z,997.96
2022-12-09T10:17:30.436Z,997.92
2022-12-09T10:18:30.588Z,997.89
2022-12-09T10:19:30.414Z,997.86
2022-12-09T10:20:30.599Z,997.88
2022-12-09T10:21:30.238Z,997.84
2022-12-09T10:22:30.653Z,997.88
2022-12-09T10:23:30.255Z,997.83
2022-12-09T10:24:34.136Z,997.87
2022-12-09T10:25:31.232Z,997.86
2022-12-09T10:26:30.302Z,997.90
2022-12-09T10:27:31.371Z,997.82
2022-12-09T10:28:30.032Z,997.81
2022-12-09T10:29:30.367Z,997.80
2022-12-09T10:30:36.254Z,997.82
2022-12-09T10:31:31.292Z,997.83
2022-12-09T10:32:30.613Z,997.88
2022-12-09T10:33:30.505Z,997.82
2022-12-09T10:34:30.380Z,997.78
2022-12-09T10:35:30.684Z,997.80
2022-12-09T10:36:35.346Z,997.78
2022-12-09T10:37:30.953Z,997.77
2022-12-09T10:38:30.286Z,997.74
2022-12-09T10:39:30.500Z,997.74
2022-12-09T10:40:30.304Z,997.72
2022-12-09T10:41:30.292Z,997.73
2022-12-09T10:42:34.785Z,997.73
2022-12-09T10:43:30.799Z,997.69
2022-12-09T10:44:29.825Z,997.72
2022-12-09T10:45:52.599Z,997.69
2022-12-09T10:46:30.887Z,997.66
2022-12-09T10:47:30.108Z,997.67
2022-12-09T10:48:32.982Z,997.66
2022-12-09T10:49:30.044Z,997.70
2022-12-09T10:50:29.964Z,997.68
2022-12-09T10:51:30.188Z,997.65
2022-12-09T10:52:29.730Z,997.70
2022-12-09T10:53:29.946Z,997.66
2022-12-09T10:54:29.779Z,997.67
2022-12-09T10:55:29.906Z,997.67
2022-12-09T10:56:29.896Z,997.66
2022-12-09T10:57:29.789Z,997.64
2022-12-09T10:58:29.801Z,997.67
2022-12-09T10:59:29.960Z,997.62
2022-12-09T11:00:34.616Z,997.57
2022-12-09T11:01:30.748Z,997.61
2022-12-09T11:02:30.115Z,997.57
2022-12-09T11:03:29.913Z,997.58
2022-12-09T11:04:30.031Z,997.55
2022-12-09T11:05:29.992Z,997.61
2022-12-09T11:06:29.800Z,997.58
2022-12-09T11:07:29.830Z,997.59
2022-12-09T11:08:30.183Z,997.60
2022-12-09T11:09:29.920Z,997.61
2022-12-09T11:10:30.152Z,997.58
2022-12-09T11:11:30.005Z,997.56
2022-12-09T11:12:36.222Z,997.58
2022-12-09T11:13:30.976Z,997.61
2022-12-09T11:14:30.512Z,997.61
2022-12-09T11:15:29.702Z,997.62
2022-12-09T11:16:29.620Z,997.57
2022-12-09T11:17:29.938Z,997.59
2022-12-09T11:18:30.081Z,997.59
2022-12-09T11:19:29.511Z,997.56
2022-12-09T11:20:29.710Z,997.51
2022-12-09T11:21:29.863Z,997.52
2022-12-09T11:22:29.540Z,997.49
2022-12-09T11:23:29.892Z,997.48
2022-12-09T11:24:29.494Z,997.50
2022-12-09T11:25:29.634Z,997.42
2022-12-09T11:26:29.759Z,997.46
2022-12-09T11:27:30.427Z,997.44
2022-12-09T11:28:29.515Z,997.44
2022-12-09T11:29:29.270Z,997.38
2022-12-09T11:30:29.863Z,997.44
2022-12-09T11:31:31.781Z,997.39
2022-12-09T11:32:29.412Z,997.40
2022-12-09T11:33:29.725Z,997.39
2022-12-09T11:34:31.027Z,997.36
2022-12-09T11:35:29.523Z,997.37
2022-12-09T11:36:31.052Z,997.38
2022-12-09T11:37:29.256Z,997.34
2022-12-09T11:38:29.262Z,997.31
2022-12-09T11:39:29.176Z,997.30
2022-12-09T11:40:29.166Z,997.34
2022-12-09T11:41:29.146Z,997.32
2022-12-09T11:42:29.143Z,997.32
2022-12-09T11:43:29.122Z,997.35
2022-12-09T11:44:29.126Z,997.35
2022-12-09T11:45:29.145Z,997.28
2022-12-09T11:46:29.184Z,997.31
2022-12-09T11:47:29.084Z,997.34
2022-12-09T11:48:34.996Z,997.35
2022-12-09T11:49:30.118Z,997.29
2022-12-09T11:50:29.083Z,997.28
2022-12-09T11:51:29.029Z,997.24
2022-12-09T11:52:29.027Z,997.23
2022-12-09T11:53:28.993Z,997.20
2022-12-09T11:54:29.042Z,997.23
2022-12-09T11:55:28.982Z,997.21
2022-12-09T11:56:28.954Z,997.17
2022-12-09T11:57:28.966Z,997.20
2022-12-09T11:58:28.947Z,997.22
2022-12-09T11:59:32.287Z,997.21
2022-12-09T12:00:29.991Z,997.24
2022-12-09T12:01:28.908Z,997.22
2022-12-09T12:02:28.911Z,997.23
2022-12-09T12:03:29.046Z,997.29
2022-12-09T12:04:28.884Z,997.31
2022-12-09T12:05:28.857Z,997.28
2022-12-09T12:06:28.865Z,997.25
2022-12-09T12:07:28.853Z,997.22
2022-12-09T12:08:29.022Z,997.19
2022-12-09T12:09:28.834Z,997.23
2022-12-09T12:10:28.838Z,997.21
2022-12-09T12:11:28.829Z,997.20
2022-12-09T12:12:28.793Z,997.18
2022-12-09T12:13:28.767Z,997.20
2022-12-09T12:14:28.763Z,997.19
2022-12-09T12:15:28.765Z,997.17
2022-12-09T12:16:28.774Z,997.17
2022-12-09T12:17:28.852Z,997.20
2022-12-09T12:18:28.776Z,997.17
2022-12-09T12:19:28.781Z,997.21
2022-12-09T12:20:28.691Z,997.17
2022-12-09T12:21:28.718Z,997.22
2022-12-09T12:22:28.687Z,997.19
2022-12-09T12:23:28.658Z,997.19
2022-12-09T12:24:28.654Z,997.18
2022-12-09T12:25:28.665Z,997.17
2022-12-09T12:26:28.655Z,997.21
2022-12-09T12:27:28.903Z,997.18
2022-12-09T12:28:28.616Z,997.18